If you wish to contribute or participate in the discussions about articles you are invited to join SKYbrary as a registered user

 Actions

Albert-Bray Airport

From SKYbrary Wiki

LFAQ
Airport
ICAO: LFAQ
Summary
Name Albert-Bray Airport
Region Europe
Territory France FR.gif
Location , Picardie
Serving Albert
Elevation 110.947 m
364 ft
364 ft110.947 m
Type small airport
Coordinates 49° 58' 17.51" N, 2° 41' 51.58" E
Runways
Designator Length Width Surface ROPS
9/27 1170 m3,838.583 ft
25 m82.021 ft
ASP /


METAR
Observation LFAQ 130430Z AUTO 09010KT CAVOK M00/M02 Q1017
Station BRAY
Date/Time 13 December 2018 04:30:00
Wind direction 90°
Wind speed 10 kts
Lowest cloud amount clouds and visibility OK
Temperature
Dew point
Humidity 86%
QNH 1017 hPa
Weather condition n/a